sensor_id;sensor_type;location;lat;lon;timestamp;P1;durP1;ratioP1;P2;durP2;ratioP2
21681;SDS011;11002;48.256;10.084;2022-08-21T00:00:13;0.50;;;0.50;;
21681;SDS011;11002;48.256;10.084;2022-08-21T00:02:45;0.60;;;0.60;;
21681;SDS011;11002;48.256;10.084;2022-08-21T00:05:15;0.40;;;0.40;;
21681;SDS011;11002;48.256;10.084;2022-08-21T00:07:42;0.30;;;0.30;;
21681;SDS011;11002;48.256;10.084;2022-08-21T00:10:10;0.43;;;0.43;;
21681;SDS011;11002;48.256;10.084;2022-08-21T00:12:39;0.50;;;0.50;;
21681;SDS011;11002;48.256;10.084;2022-08-21T00:15:07;0.35;;;0.35;;
21681;SDS011;11002;48.256;10.084;2022-08-21T00:17:37;0.43;;;0.43;;
21681;SDS011;11002;48.256;10.084;2022-08-21T00:20:06;0.40;;;0.40;;
21681;SDS011;11002;48.256;10.084;2022-08-21T00:22:36;0.68;;;0.43;;
21681;SDS011;11002;48.256;10.084;2022-08-21T00:25:06;0.35;;;0.35;;
21681;SDS011;11002;48.256;10.084;2022-08-21T00:27:35;0.45;;;0.43;;
21681;SDS011;11002;48.256;10.084;2022-08-21T00:30:03;0.35;;;0.35;;
21681;SDS011;11002;48.256;10.084;2022-08-21T00:32:33;0.45;;;0.45;;
21681;SDS011;11002;48.256;10.084;2022-08-21T00:35:04;0.40;;;0.40;;
21681;SDS011;11002;48.256;10.084;2022-08-21T00:37:33;0.40;;;0.40;;
21681;SDS011;11002;48.256;10.084;2022-08-21T00:40:01;0.73;;;0.50;;
21681;SDS011;11002;48.256;10.084;2022-08-21T00:42:29;0.32;;;0.32;;
21681;SDS011;11002;48.256;10.084;2022-08-21T00:44:57;0.40;;;0.40;;
21681;SDS011;11002;48.256;10.084;2022-08-21T00:47:24;0.35;;;0.30;;
21681;SDS011;11002;48.256;10.084;2022-08-21T00:49:52;0.40;;;0.40;;
21681;SDS011;11002;48.256;10.084;2022-08-21T00:52:22;0.40;;;0.40;;
21681;SDS011;11002;48.256;10.084;2022-08-21T00:54:53;0.50;;;0.50;;
21681;SDS011;11002;48.256;10.084;2022-08-21T00:57:25;0.30;;;0.30;;
21681;SDS011;11002;48.256;10.084;2022-08-21T00:59:58;0.55;;;0.55;;
21681;SDS011;11002;48.256;10.084;2022-08-21T01:02:27;0.70;;;0.50;;
21681;SDS011;11002;48.256;10.084;2022-08-21T01:04:55;0.57;;;0.57;;
21681;SDS011;11002;48.256;10.084;2022-08-21T01:07:24;0.40;;;0.40;;
21681;SDS011;11002;48.256;10.084;2022-08-21T01:09:51;0.40;;;0.40;;
21681;SDS011;11002;48.256;10.084;2022-08-21T01:12:19;0.40;;;0.40;;
21681;SDS011;11002;48.256;10.084;2022-08-21T01:14:46;0.40;;;0.40;;
21681;SDS011;11002;48.256;10.084;2022-08-21T01:17:14;0.30;;;0.30;;
21681;SDS011;11002;48.256;10.084;2022-08-21T01:19:42;0.60;;;0.40;;
21681;SDS011;11002;48.256;10.084;2022-08-21T01:22:11;0.40;;;0.40;;
21681;SDS011;11002;48.256;10.084;2022-08-21T01:24:38;0.45;;;0.45;;
21681;SDS011;11002;48.256;10.084;2022-08-21T01:27:06;0.50;;;0.50;;
21681;SDS011;11002;48.256;10.084;2022-08-21T01:29:34;0.82;;;0.50;;
21681;SDS011;11002;48.256;10.084;2022-08-21T01:32:07;0.88;;;0.55;;
21681;SDS011;11002;48.256;10.084;2022-08-21T01:34:37;0.40;;;0.40;;
21681;SDS011;11002;48.256;10.084;2022-08-21T01:37:07;0.40;;;0.40;;
21681;SDS011;11002;48.256;10.084;2022-08-21T01:39:36;0.40;;;0.40;;
21681;SDS011;11002;48.256;10.084;2022-08-21T01:42:04;0.30;;;0.30;;
21681;SDS011;11002;48.256;10.084;2022-08-21T01:44:32;0.40;;;0.40;;
21681;SDS011;11002;48.256;10.084;2022-08-21T01:47:00;0.40;;;0.40;;
21681;SDS011;11002;48.256;10.084;2022-08-21T01:49:30;0.40;;;0.40;;
21681;SDS011;11002;48.256;10.084;2022-08-21T01:51:57;0.73;;;0.30;;
21681;SDS011;11002;48.256;10.084;2022-08-21T01:54:25;0.40;;;0.40;;
21681;SDS011;11002;48.256;10.084;2022-08-21T01:56:54;0.40;;;0.40;;
21681;SDS011;11002;48.256;10.084;2022-08-21T01:59:22;0.75;;;0.47;;
21681;SDS011;11002;48.256;10.084;2022-08-21T02:01:50;0.50;;;0.47;;
21681;SDS011;11002;48.256;10.084;2022-08-21T02:04:19;0.40;;;0.40;;
21681;SDS011;11002;48.256;10.084;2022-08-21T02:06:48;0.40;;;0.40;;
21681;SDS011;11002;48.256;10.084;2022-08-21T02:09:16;0.75;;;0.40;;
21681;SDS011;11002;48.256;10.084;2022-08-21T02:11:43;0.30;;;0.30;;
21681;SDS011;11002;48.256;10.084;2022-08-21T02:14:13;0.40;;;0.40;;
21681;SDS011;11002;48.256;10.084;2022-08-21T02:16:41;0.40;;;0.40;;
21681;SDS011;11002;48.256;10.084;2022-08-21T02:19:09;0.50;;;0.50;;
21681;SDS011;11002;48.256;10.084;2022-08-21T02:21:37;0.32;;;0.32;;
21681;SDS011;11002;48.256;10.084;2022-08-21T02:24:05;0.40;;;0.40;;
21681;SDS011;11002;48.256;10.084;2022-08-21T02:26:33;0.35;;;0.35;;
21681;SDS011;11002;48.256;10.084;2022-08-21T02:29:01;0.32;;;0.32;;
21681;SDS011;11002;48.256;10.084;2022-08-21T02:31:31;0.45;;;0.40;;
21681;SDS011;11002;48.256;10.084;2022-08-21T02:33:58;0.63;;;0.50;;
21681;SDS011;11002;48.256;10.084;2022-08-21T02:36:26;0.30;;;0.30;;
21681;SDS011;11002;48.256;10.084;2022-08-21T02:38:53;0.40;;;0.40;;
21681;SDS011;11002;48.256;10.084;2022-08-21T02:41:21;0.30;;;0.30;;
21681;SDS011;11002;48.256;10.084;2022-08-21T02:43:49;0.45;;;0.45;;
21681;SDS011;11002;48.256;10.084;2022-08-21T02:46:17;0.40;;;0.40;;
21681;SDS011;11002;48.256;10.084;2022-08-21T02:48:48;0.30;;;0.30;;
21681;SDS011;11002;48.256;10.084;2022-08-21T02:51:16;0.90;;;0.40;;
21681;SDS011;11002;48.256;10.084;2022-08-21T02:53:45;0.70;;;0.40;;
21681;SDS011;11002;48.256;10.084;2022-08-21T02:56:14;0.35;;;0.35;;
21681;SDS011;11002;48.256;10.084;2022-08-21T02:58:45;0.45;;;0.40;;
21681;SDS011;11002;48.256;10.084;2022-08-21T03:01:14;0.70;;;0.30;;
21681;SDS011;11002;48.256;10.084;2022-08-21T03:03:42;0.28;;;0.28;;
21681;SDS011;11002;48.256;10.084;2022-08-21T03:06:14;0.30;;;0.30;;
21681;SDS011;11002;48.256;10.084;2022-08-21T03:08:42;0.50;;;0.50;;
21681;SDS011;11002;48.256;10.084;2022-08-21T03:11:10;0.40;;;0.40;;
21681;SDS011;11002;48.256;10.084;2022-08-21T03:13:38;0.60;;;0.50;;
21681;SDS011;11002;48.256;10.084;2022-08-21T03:16:06;0.40;;;0.40;;
21681;SDS011;11002;48.256;10.084;2022-08-21T03:18:34;0.47;;;0.47;;
21681;SDS011;11002;48.256;10.084;2022-08-21T03:21:01;0.20;;;0.20;;
21681;SDS011;11002;48.256;10.084;2022-08-21T03:23:30;0.95;;;0.40;;
21681;SDS011;11002;48.256;10.084;2022-08-21T03:25:58;0.40;;;0.40;;
21681;SDS011;11002;48.256;10.084;2022-08-21T03:28:26;0.50;;;0.50;;
21681;SDS011;11002;48.256;10.084;2022-08-21T03:30:53;0.30;;;0.30;;
21681;SDS011;11002;48.256;10.084;2022-08-21T03:33:21;0.40;;;0.40;;
21681;SDS011;11002;48.256;10.084;2022-08-21T03:35:54;0.35;;;0.35;;
21681;SDS011;11002;48.256;10.084;2022-08-21T03:38:27;0.50;;;0.50;;
21681;SDS011;11002;48.256;10.084;2022-08-21T03:40:57;0.68;;;0.40;;
21681;SDS011;11002;48.256;10.084;2022-08-21T03:43:25;0.30;;;0.30;;
21681;SDS011;11002;48.256;10.084;2022-08-21T03:45:53;0.50;;;0.50;;
21681;SDS011;11002;48.256;10.084;2022-08-21T03:48:20;0.52;;;0.45;;
21681;SDS011;11002;48.256;10.084;2022-08-21T03:50:48;0.50;;;0.40;;
21681;SDS011;11002;48.256;10.084;2022-08-21T03:53:18;0.35;;;0.35;;
21681;SDS011;11002;48.256;10.084;2022-08-21T03:55:46;0.30;;;0.30;;
21681;SDS011;11002;48.256;10.084;2022-08-21T03:58:17;0.35;;;0.35;;
21681;SDS011;11002;48.256;10.084;2022-08-21T04:00:46;0.30;;;0.30;;
21681;SDS011;11002;48.256;10.084;2022-08-21T04:03:16;0.30;;;0.30;;
21681;SDS011;11002;48.256;10.084;2022-08-21T04:05:44;0.35;;;0.35;;
21681;SDS011;11002;48.256;10.084;2022-08-21T04:08:11;0.30;;;0.30;;
21681;SDS011;11002;48.256;10.084;2022-08-21T04:10:40;0.40;;;0.40;;
21681;SDS011;11002;48.256;10.084;2022-08-21T04:13:07;0.35;;;0.35;;
21681;SDS011;11002;48.256;10.084;2022-08-21T04:15:36;0.50;;;0.32;;
21681;SDS011;11002;48.256;10.084;2022-08-21T04:18:04;0.40;;;0.40;;
21681;SDS011;11002;48.256;10.084;2022-08-21T04:20:31;0.50;;;0.32;;
21681;SDS011;11002;48.256;10.084;2022-08-21T04:22:59;0.30;;;0.30;;
21681;SDS011;11002;48.256;10.084;2022-08-21T04:25:27;0.30;;;0.30;;
21681;SDS011;11002;48.256;10.084;2022-08-21T04:27:54;0.35;;;0.35;;
21681;SDS011;11002;48.256;10.084;2022-08-21T04:30:22;0.75;;;0.40;;
21681;SDS011;11002;48.256;10.084;2022-08-21T04:32:51;0.38;;;0.38;;
21681;SDS011;11002;48.256;10.084;2022-08-21T04:35:20;0.40;;;0.30;;
21681;SDS011;11002;48.256;10.084;2022-08-21T04:37:49;0.30;;;0.30;;
21681;SDS011;11002;48.256;10.084;2022-08-21T04:40:17;0.50;;;0.30;;
21681;SDS011;11002;48.256;10.084;2022-08-21T04:42:47;0.40;;;0.40;;
21681;SDS011;11002;48.256;10.084;2022-08-21T04:45:16;0.30;;;0.30;;
21681;SDS011;11002;48.256;10.084;2022-08-21T04:47:53;0.30;;;0.30;;
21681;SDS011;11002;48.256;10.084;2022-08-21T04:50:22;0.32;;;0.30;;
21681;SDS011;11002;48.256;10.084;2022-08-21T04:53:02;0.32;;;0.32;;
21681;SDS011;11002;48.256;10.084;2022-08-21T04:55:31;1.15;;;0.30;;
21681;SDS011;11002;48.256;10.084;2022-08-21T04:57:59;0.35;;;0.35;;
21681;SDS011;11002;48.256;10.084;2022-08-21T05:00:27;0.25;;;0.20;;
21681;SDS011;11002;48.256;10.084;2022-08-21T05:02:56;0.47;;;0.40;;
21681;SDS011;11002;48.256;10.084;2022-08-21T05:05:27;0.50;;;0.30;;
21681;SDS011;11002;48.256;10.084;2022-08-21T05:07:55;0.40;;;0.30;;
21681;SDS011;11002;48.256;10.084;2022-08-21T05:10:24;0.32;;;0.32;;
21681;SDS011;11002;48.256;10.084;2022-08-21T05:12:51;0.50;;;0.50;;
21681;SDS011;11002;48.256;10.084;2022-08-21T05:15:20;0.55;;;0.30;;
21681;SDS011;11002;48.256;10.084;2022-08-21T05:17:47;0.20;;;0.20;;
21681;SDS011;11002;48.256;10.084;2022-08-21T05:20:17;0.20;;;0.20;;
21681;SDS011;11002;48.256;10.084;2022-08-21T05:22:45;0.68;;;0.43;;
21681;SDS011;11002;48.256;10.084;2022-08-21T05:25:12;0.45;;;0.45;;
21681;SDS011;11002;48.256;10.084;2022-08-21T05:27:40;0.40;;;0.40;;
21681;SDS011;11002;48.256;10.084;2022-08-21T05:30:08;0.40;;;0.40;;
21681;SDS011;11002;48.256;10.084;2022-08-21T05:32:36;0.40;;;0.40;;
21681;SDS011;11002;48.256;10.084;2022-08-21T05:35:04;0.55;;;0.50;;
21681;SDS011;11002;48.256;10.084;2022-08-21T05:37:34;0.40;;;0.40;;
21681;SDS011;11002;48.256;10.084;2022-08-21T05:40:02;0.47;;;0.22;;
21681;SDS011;11002;48.256;10.084;2022-08-21T05:42:30;2.08;;;0.50;;
21681;SDS011;11002;48.256;10.084;2022-08-21T05:44:58;0.30;;;0.30;;
21681;SDS011;11002;48.256;10.084;2022-08-21T05:47:25;0.35;;;0.35;;
21681;SDS011;11002;48.256;10.084;2022-08-21T05:49:53;0.45;;;0.40;;
21681;SDS011;11002;48.256;10.084;2022-08-21T05:52:20;0.70;;;0.40;;
21681;SDS011;11002;48.256;10.084;2022-08-21T05:54:49;0.30;;;0.30;;
21681;SDS011;11002;48.256;10.084;2022-08-21T05:57:19;0.40;;;0.40;;
21681;SDS011;11002;48.256;10.084;2022-08-21T05:59:46;0.40;;;0.40;;
21681;SDS011;11002;48.256;10.084;2022-08-21T06:02:14;0.40;;;0.40;;
21681;SDS011;11002;48.256;10.084;2022-08-21T06:04:43;0.40;;;0.40;;
21681;SDS011;11002;48.256;10.084;2022-08-21T06:07:11;0.38;;;0.20;;
21681;SDS011;11002;48.256;10.084;2022-08-21T06:09:39;0.40;;;0.40;;
21681;SDS011;11002;48.256;10.084;2022-08-21T06:12:08;0.30;;;0.30;;
21681;SDS011;11002;48.256;10.084;2022-08-21T06:14:37;0.30;;;0.30;;
21681;SDS011;11002;48.256;10.084;2022-08-21T06:17:06;0.52;;;0.40;;
21681;SDS011;11002;48.256;10.084;2022-08-21T06:19:35;0.32;;;0.32;;
21681;SDS011;11002;48.256;10.084;2022-08-21T06:22:04;0.77;;;0.50;;
21681;SDS011;11002;48.256;10.084;2022-08-21T06:24:31;0.75;;;0.57;;
21681;SDS011;11002;48.256;10.084;2022-08-21T06:27:03;0.40;;;0.40;;
21681;SDS011;11002;48.256;10.084;2022-08-21T06:29:33;0.38;;;0.38;;
21681;SDS011;11002;48.256;10.084;2022-08-21T06:32:01;0.40;;;0.40;;
21681;SDS011;11002;48.256;10.084;2022-08-21T06:34:29;0.28;;;0.28;;
21681;SDS011;11002;48.256;10.084;2022-08-21T06:36:57;0.40;;;0.40;;
21681;SDS011;11002;48.256;10.084;2022-08-21T06:39:24;0.20;;;0.20;;
21681;SDS011;11002;48.256;10.084;2022-08-21T06:41:51;0.20;;;0.20;;
21681;SDS011;11002;48.256;10.084;2022-08-21T06:44:27;0.30;;;0.30;;
21681;SDS011;11002;48.256;10.084;2022-08-21T06:46:57;0.25;;;0.25;;
21681;SDS011;11002;48.256;10.084;2022-08-21T06:49:24;0.40;;;0.40;;
21681;SDS011;11002;48.256;10.084;2022-08-21T06:51:51;0.40;;;0.40;;
21681;SDS011;11002;48.256;10.084;2022-08-21T06:54:19;0.30;;;0.30;;
21681;SDS011;11002;48.256;10.084;2022-08-21T06:56:46;0.20;;;0.20;;
21681;SDS011;11002;48.256;10.084;2022-08-21T06:59:14;0.35;;;0.35;;
21681;SDS011;11002;48.256;10.084;2022-08-21T07:01:41;0.68;;;0.40;;
21681;SDS011;11002;48.256;10.084;2022-08-21T07:04:10;0.40;;;0.40;;
21681;SDS011;11002;48.256;10.084;2022-08-21T07:06:37;0.50;;;0.40;;
21681;SDS011;11002;48.256;10.084;2022-08-21T07:09:05;1.73;;;0.50;;
21681;SDS011;11002;48.256;10.084;2022-08-21T07:11:33;0.38;;;0.38;;
21681;SDS011;11002;48.256;10.084;2022-08-21T07:14:03;0.30;;;0.30;;
21681;SDS011;11002;48.256;10.084;2022-08-21T07:16:31;0.35;;;0.35;;
21681;SDS011;11002;48.256;10.084;2022-08-21T07:18:58;0.40;;;0.40;;
21681;SDS011;11002;48.256;10.084;2022-08-21T07:21:27;0.47;;;0.35;;
21681;SDS011;11002;48.256;10.084;2022-08-21T07:23:54;0.30;;;0.30;;
21681;SDS011;11002;48.256;10.084;2022-08-21T07:26:23;0.63;;;0.38;;
21681;SDS011;11002;48.256;10.084;2022-08-21T07:28:51;0.40;;;0.38;;
21681;SDS011;11002;48.256;10.084;2022-08-21T07:31:20;0.28;;;0.28;;
21681;SDS011;11002;48.256;10.084;2022-08-21T07:33:49;1.42;;;0.30;;
21681;SDS011;11002;48.256;10.084;2022-08-21T07:36:17;0.30;;;0.30;;
21681;SDS011;11002;48.256;10.084;2022-08-21T07:38:46;0.30;;;0.30;;
21681;SDS011;11002;48.256;10.084;2022-08-21T07:41:15;0.47;;;0.47;;
21681;SDS011;11002;48.256;10.084;2022-08-21T07:43:44;0.40;;;0.30;;
21681;SDS011;11002;48.256;10.084;2022-08-21T07:46:12;0.30;;;0.30;;
21681;SDS011;11002;48.256;10.084;2022-08-21T07:48:40;0.40;;;0.40;;
21681;SDS011;11002;48.256;10.084;2022-08-21T07:51:09;0.30;;;0.30;;
21681;SDS011;11002;48.256;10.084;2022-08-21T07:53:38;0.30;;;0.30;;
21681;SDS011;11002;48.256;10.084;2022-08-21T07:56:07;0.30;;;0.30;;
21681;SDS011;11002;48.256;10.084;2022-08-21T07:58:36;0.22;;;0.22;;
21681;SDS011;11002;48.256;10.084;2022-08-21T08:01:04;0.50;;;0.30;;
21681;SDS011;11002;48.256;10.084;2022-08-21T08:03:32;0.28;;;0.28;;
21681;SDS011;11002;48.256;10.084;2022-08-21T08:06:00;0.30;;;0.30;;
21681;SDS011;11002;48.256;10.084;2022-08-21T08:08:32;0.35;;;0.35;;
21681;SDS011;11002;48.256;10.084;2022-08-21T08:11:00;0.30;;;0.30;;
21681;SDS011;11002;48.256;10.084;2022-08-21T08:13:29;0.30;;;0.30;;
21681;SDS011;11002;48.256;10.084;2022-08-21T08:15:56;0.52;;;0.30;;
21681;SDS011;11002;48.256;10.084;2022-08-21T08:18:24;0.20;;;0.20;;
21681;SDS011;11002;48.256;10.084;2022-08-21T08:20:51;0.50;;;0.50;;
21681;SDS011;11002;48.256;10.084;2022-08-21T08:23:18;0.30;;;0.30;;
21681;SDS011;11002;48.256;10.084;2022-08-21T08:25:46;0.30;;;0.30;;
21681;SDS011;11002;48.256;10.084;2022-08-21T08:28:13;2.38;;;0.32;;
21681;SDS011;11002;48.256;10.084;2022-08-21T08:30:42;0.40;;;0.40;;
21681;SDS011;11002;48.256;10.084;2022-08-21T08:33:10;0.30;;;0.30;;
21681;SDS011;11002;48.256;10.084;2022-08-21T08:35:38;0.25;;;0.22;;
21681;SDS011;11002;48.256;10.084;2022-08-21T08:38:05;0.65;;;0.28;;
21681;SDS011;11002;48.256;10.084;2022-08-21T08:40:35;0.20;;;0.20;;
21681;SDS011;11002;48.256;10.084;2022-08-21T08:43:07;0.30;;;0.30;;
21681;SDS011;11002;48.256;10.084;2022-08-21T08:45:36;0.40;;;0.40;;
21681;SDS011;11002;48.256;10.084;2022-08-21T08:48:08;0.38;;;0.38;;
21681;SDS011;11002;48.256;10.084;2022-08-21T08:50:40;0.20;;;0.20;;
21681;SDS011;11002;48.256;10.084;2022-08-21T08:53:12;0.30;;;0.30;;
21681;SDS011;11002;48.256;10.084;2022-08-21T08:55:44;0.32;;;0.32;;
21681;SDS011;11002;48.256;10.084;2022-08-21T08:58:15;0.22;;;0.22;;
21681;SDS011;11002;48.256;10.084;2022-08-21T09:03:16;0.20;;;0.20;;
21681;SDS011;11002;48.256;10.084;2022-08-21T09:05:45;0.32;;;0.30;;
21681;SDS011;11002;48.256;10.084;2022-08-21T09:08:26;0.80;;;0.30;;
21681;SDS011;11002;48.256;10.084;2022-08-21T09:11:09;0.35;;;0.35;;
21681;SDS011;11002;48.256;10.084;2022-08-21T09:13:45;0.95;;;0.60;;
21681;SDS011;11002;48.256;10.084;2022-08-21T09:16:21;0.40;;;0.40;;
21681;SDS011;11002;48.256;10.084;2022-08-21T09:19:01;0.30;;;0.30;;
21681;SDS011;11002;48.256;10.084;2022-08-21T09:21:35;1.55;;;0.40;;
21681;SDS011;11002;48.256;10.084;2022-08-21T09:24:14;0.32;;;0.32;;
21681;SDS011;11002;48.256;10.084;2022-08-21T09:26:54;2.65;;;0.52;;
21681;SDS011;11002;48.256;10.084;2022-08-21T09:29:30;0.28;;;0.28;;
21681;SDS011;11002;48.256;10.084;2022-08-21T09:32:01;0.73;;;0.40;;
21681;SDS011;11002;48.256;10.084;2022-08-21T09:34:31;0.30;;;0.30;;
21681;SDS011;11002;48.256;10.084;2022-08-21T09:36:59;0.35;;;0.35;;
21681;SDS011;11002;48.256;10.084;2022-08-21T09:39:29;0.60;;;0.30;;
21681;SDS011;11002;48.256;10.084;2022-08-21T09:41:59;0.30;;;0.30;;
21681;SDS011;11002;48.256;10.084;2022-08-21T09:44:29;0.30;;;0.30;;
21681;SDS011;11002;48.256;10.084;2022-08-21T09:46:57;0.40;;;0.40;;
21681;SDS011;11002;48.256;10.084;2022-08-21T09:49:28;0.45;;;0.45;;
21681;SDS011;11002;48.256;10.084;2022-08-21T09:51:57;1.52;;;0.30;;
21681;SDS011;11002;48.256;10.084;2022-08-21T09:54:26;0.30;;;0.20;;
21681;SDS011;11002;48.256;10.084;2022-08-21T09:56:58;0.30;;;0.30;;
21681;SDS011;11002;48.256;10.084;2022-08-21T09:59:44;0.32;;;0.32;;
21681;SDS011;11002;48.256;10.084;2022-08-21T10:02:23;0.45;;;0.35;;
21681;SDS011;11002;48.256;10.084;2022-08-21T10:04:54;0.40;;;0.40;;
21681;SDS011;11002;48.256;10.084;2022-08-21T10:07:26;0.85;;;0.32;;
21681;SDS011;11002;48.256;10.084;2022-08-21T10:09:58;0.25;;;0.22;;
21681;SDS011;11002;48.256;10.084;2022-08-21T10:12:33;0.40;;;0.30;;
21681;SDS011;11002;48.256;10.084;2022-08-21T10:15:12;0.20;;;0.20;;
21681;SDS011;11002;48.256;10.084;2022-08-21T10:17:48;0.95;;;0.30;;
21681;SDS011;11002;48.256;10.084;2022-08-21T10:20:20;0.40;;;0.40;;
21681;SDS011;11002;48.256;10.084;2022-08-21T10:22:57;0.50;;;0.50;;
21681;SDS011;11002;48.256;10.084;2022-08-21T10:25:36;0.30;;;0.30;;
21681;SDS011;11002;48.256;10.084;2022-08-21T10:28:10;0.50;;;0.50;;
21681;SDS011;11002;48.256;10.084;2022-08-21T10:30:46;0.40;;;0.40;;
21681;SDS011;11002;48.256;10.084;2022-08-21T10:33:20;0.20;;;0.20;;
21681;SDS011;11002;48.256;10.084;2022-08-21T10:35:57;0.60;;;0.60;;
21681;SDS011;11002;48.256;10.084;2022-08-21T10:38:38;2.05;;;0.50;;
21681;SDS011;11002;48.256;10.084;2022-08-21T10:41:18;0.40;;;0.40;;
21681;SDS011;11002;48.256;10.084;2022-08-21T10:43:55;0.55;;;0.50;;
21681;SDS011;11002;48.256;10.084;2022-08-21T10:46:36;1.05;;;0.50;;
21681;SDS011;11002;48.256;10.084;2022-08-21T10:49:13;0.57;;;0.55;;
21681;SDS011;11002;48.256;10.084;2022-08-21T10:51:51;0.82;;;0.50;;
21681;SDS011;11002;48.256;10.084;2022-08-21T10:54:32;1.98;;;0.38;;
21681;SDS011;11002;48.256;10.084;2022-08-21T10:57:07;0.85;;;0.60;;
21681;SDS011;11002;48.256;10.084;2022-08-21T10:59:41;0.50;;;0.50;;
21681;SDS011;11002;48.256;10.084;2022-08-21T11:04:48;0.60;;;0.60;;
21681;SDS011;11002;48.256;10.084;2022-08-21T11:07:22;0.52;;;0.52;;
21681;SDS011;11002;48.256;10.084;2022-08-21T11:10:00;0.50;;;0.50;;
21681;SDS011;11002;48.256;10.084;2022-08-21T11:12:35;0.65;;;0.60;;
21681;SDS011;11002;48.256;10.084;2022-08-21T11:15:11;0.57;;;0.50;;
21681;SDS011;11002;48.256;10.084;2022-08-21T11:17:50;0.70;;;0.50;;
21681;SDS011;11002;48.256;10.084;2022-08-21T11:20:28;0.47;;;0.40;;
21681;SDS011;11002;48.256;10.084;2022-08-21T11:23:01;0.80;;;0.70;;
21681;SDS011;11002;48.256;10.084;2022-08-21T11:25:35;0.60;;;0.60;;
21681;SDS011;11002;48.256;10.084;2022-08-21T11:28:06;0.50;;;0.50;;
21681;SDS011;11002;48.256;10.084;2022-08-21T11:30:40;0.55;;;0.50;;
21681;SDS011;11002;48.256;10.084;2022-08-21T11:33:20;0.77;;;0.60;;
21681;SDS011;11002;48.256;10.084;2022-08-21T11:35:59;0.80;;;0.55;;
21681;SDS011;11002;48.256;10.084;2022-08-21T11:38:35;2.22;;;0.77;;
21681;SDS011;11002;48.256;10.084;2022-08-21T11:41:12;0.68;;;0.60;;
21681;SDS011;11002;48.256;10.084;2022-08-21T11:43:49;1.10;;;0.70;;
21681;SDS011;11002;48.256;10.084;2022-08-21T11:46:25;0.95;;;0.60;;
21681;SDS011;11002;48.256;10.084;2022-08-21T11:49:06;0.75;;;0.68;;
21681;SDS011;11002;48.256;10.084;2022-08-21T11:51:48;1.30;;;0.75;;
21681;SDS011;11002;48.256;10.084;2022-08-21T11:54:24;0.57;;;0.57;;
21681;SDS011;11002;48.256;10.084;2022-08-21T11:57:03;0.63;;;0.63;;
21681;SDS011;11002;48.256;10.084;2022-08-21T11:59:36;0.90;;;0.73;;
21681;SDS011;11002;48.256;10.084;2022-08-21T12:02:18;0.75;;;0.60;;
21681;SDS011;11002;48.256;10.084;2022-08-21T12:04:49;0.90;;;0.60;;
21681;SDS011;11002;48.256;10.084;2022-08-21T12:07:29;0.90;;;0.90;;
21681;SDS011;11002;48.256;10.084;2022-08-21T12:09:59;0.70;;;0.70;;
21681;SDS011;11002;48.256;10.084;2022-08-21T12:12:29;0.90;;;0.73;;
21681;SDS011;11002;48.256;10.084;2022-08-21T12:15:12;1.08;;;0.70;;
21681;SDS011;11002;48.256;10.084;2022-08-21T12:17:58;0.88;;;0.73;;
21681;SDS011;11002;48.256;10.084;2022-08-21T12:20:38;0.68;;;0.68;;
21681;SDS011;11002;48.256;10.084;2022-08-21T12:23:16;0.93;;;0.60;;
21681;SDS011;11002;48.256;10.084;2022-08-21T12:29:02;0.50;;;0.50;;
21681;SDS011;11002;48.256;10.084;2022-08-21T12:31:31;0.80;;;0.50;;
21681;SDS011;11002;48.256;10.084;2022-08-21T12:33:59;1.00;;;0.90;;
21681;SDS011;11002;48.256;10.084;2022-08-21T12:36:33;0.93;;;0.73;;
21681;SDS011;11002;48.256;10.084;2022-08-21T12:39:11;0.70;;;0.70;;
21681;SDS011;11002;48.256;10.084;2022-08-21T12:41:44;0.85;;;0.65;;
21681;SDS011;11002;48.256;10.084;2022-08-21T12:44:16;0.65;;;0.65;;
21681;SDS011;11002;48.256;10.084;2022-08-21T12:46:50;0.80;;;0.80;;
21681;SDS011;11002;48.256;10.084;2022-08-21T12:49:23;0.88;;;0.80;;
21681;SDS011;11002;48.256;10.084;2022-08-21T12:52:01;1.08;;;1.00;;
21681;SDS011;11002;48.256;10.084;2022-08-21T12:54:37;0.70;;;0.50;;
21681;SDS011;11002;48.256;10.084;2022-08-21T12:57:07;1.38;;;1.00;;
21681;SDS011;11002;48.256;10.084;2022-08-21T12:59:38;0.95;;;0.60;;
21681;SDS011;11002;48.256;10.084;2022-08-21T13:02:10;0.80;;;0.80;;
21681;SDS011;11002;48.256;10.084;2022-08-21T13:04:42;0.80;;;0.80;;
21681;SDS011;11002;48.256;10.084;2022-08-21T13:07:11;1.35;;;0.80;;
21681;SDS011;11002;48.256;10.084;2022-08-21T13:09:44;0.80;;;0.80;;
21681;SDS011;11002;48.256;10.084;2022-08-21T13:12:15;0.90;;;0.70;;
21681;SDS011;11002;48.256;10.084;2022-08-21T13:14:46;1.00;;;0.90;;
21681;SDS011;11002;48.256;10.084;2022-08-21T13:17:16;0.80;;;0.70;;
21681;SDS011;11002;48.256;10.084;2022-08-21T13:19:52;1.02;;;0.93;;
21681;SDS011;11002;48.256;10.084;2022-08-21T13:22:24;1.38;;;0.73;;
21681;SDS011;11002;48.256;10.084;2022-08-21T13:24:52;0.90;;;0.90;;
21681;SDS011;11002;48.256;10.084;2022-08-21T13:27:25;1.08;;;1.00;;
21681;SDS011;11002;48.256;10.084;2022-08-21T13:30:02;0.63;;;0.63;;
21681;SDS011;11002;48.256;10.084;2022-08-21T13:32:33;0.80;;;0.80;;
21681;SDS011;11002;48.256;10.084;2022-08-21T13:35:14;0.73;;;0.70;;
21681;SDS011;11002;48.256;10.084;2022-08-21T13:37:44;1.08;;;0.90;;
21681;SDS011;11002;48.256;10.084;2022-08-21T13:40:13;1.02;;;0.70;;
21681;SDS011;11002;48.256;10.084;2022-08-21T13:42:43;0.70;;;0.70;;
21681;SDS011;11002;48.256;10.084;2022-08-21T13:45:16;0.98;;;0.80;;
21681;SDS011;11002;48.256;10.084;2022-08-21T13:47:48;0.77;;;0.60;;
21681;SDS011;11002;48.256;10.084;2022-08-21T13:50:16;0.70;;;0.70;;
21681;SDS011;11002;48.256;10.084;2022-08-21T13:52:53;1.15;;;0.80;;
21681;SDS011;11002;48.256;10.084;2022-08-21T13:55:24;0.90;;;0.90;;
21681;SDS011;11002;48.256;10.084;2022-08-21T13:57:58;0.75;;;0.70;;
21681;SDS011;11002;48.256;10.084;2022-08-21T14:00:29;2.22;;;0.77;;
21681;SDS011;11002;48.256;10.084;2022-08-21T14:03:02;0.75;;;0.75;;
21681;SDS011;11002;48.256;10.084;2022-08-21T14:05:33;0.77;;;0.73;;
21681;SDS011;11002;48.256;10.084;2022-08-21T14:08:04;1.40;;;0.90;;
21681;SDS011;11002;48.256;10.084;2022-08-21T14:10:35;1.08;;;0.98;;
21681;SDS011;11002;48.256;10.084;2022-08-21T14:13:14;1.35;;;1.02;;
21681;SDS011;11002;48.256;10.084;2022-08-21T14:15:56;2.00;;;0.80;;
21681;SDS011;11002;48.256;10.084;2022-08-21T14:18:25;1.30;;;1.20;;
21681;SDS011;11002;48.256;10.084;2022-08-21T14:21:02;0.65;;;0.65;;
21681;SDS011;11002;48.256;10.084;2022-08-21T14:23:31;1.42;;;0.80;;
21681;SDS011;11002;48.256;10.084;2022-08-21T14:25:59;2.15;;;0.77;;
21681;SDS011;11002;48.256;10.084;2022-08-21T14:28:29;0.63;;;0.63;;
21681;SDS011;11002;48.256;10.084;2022-08-21T14:31:10;1.42;;;0.73;;
21681;SDS011;11002;48.256;10.084;2022-08-21T14:33:40;0.50;;;0.50;;
21681;SDS011;11002;48.256;10.084;2022-08-21T14:36:07;0.70;;;0.70;;
21681;SDS011;11002;48.256;10.084;2022-08-21T14:38:36;0.60;;;0.60;;
21681;SDS011;11002;48.256;10.084;2022-08-21T14:41:09;0.80;;;0.80;;
21681;SDS011;11002;48.256;10.084;2022-08-21T14:43:42;0.88;;;0.88;;
21681;SDS011;11002;48.256;10.084;2022-08-21T14:46:12;1.00;;;0.90;;
